sensor_id;sensor_type;location;lat;lon;timestamp;temperature;humidity
67358;HTU21D;54240;51.096;5.878;2023-06-01T00:02:09;16.87;-6.00
67358;HTU21D;54240;51.096;5.878;2023-06-01T00:04:38;16.75;-6.00
67358;HTU21D;54240;51.096;5.878;2023-06-01T00:07:07;16.73;-6.00
67358;HTU21D;54240;51.096;5.878;2023-06-01T00:09:33;16.62;-6.00
67358;HTU21D;54240;51.096;5.878;2023-06-01T00:11:59;16.49;-6.00
67358;HTU21D;54240;51.096;5.878;2023-06-01T00:14:26;16.49;-6.00
67358;HTU21D;54240;51.096;5.878;2023-06-01T00:16:52;16.45;-6.00
67358;HTU21D;54240;51.096;5.878;2023-06-01T00:19:18;16.34;-6.00
67358;HTU21D;54240;51.096;5.878;2023-06-01T00:21:44;16.47;-6.00
67358;HTU21D;54240;51.096;5.878;2023-06-01T00:24:10;16.29;-6.00
67358;HTU21D;54240;51.096;5.878;2023-06-01T00:26:35;16.13;-6.00
67358;HTU21D;54240;51.096;5.878;2023-06-01T00:29:01;16.19;-6.00
67358;HTU21D;54240;51.096;5.878;2023-06-01T00:31:27;16.15;-6.00
67358;HTU21D;54240;51.096;5.878;2023-06-01T00:33:54;15.90;-6.00
67358;HTU21D;54240;51.096;5.878;2023-06-01T00:36:20;15.93;-6.00
67358;HTU21D;54240;51.096;5.878;2023-06-01T00:38:47;15.74;-6.00
67358;HTU21D;54240;51.096;5.878;2023-06-01T00:41:13;15.88;-6.00
67358;HTU21D;54240;51.096;5.878;2023-06-01T00:43:42;15.70;-6.00
67358;HTU21D;54240;51.096;5.878;2023-06-01T00:46:08;15.60;-6.00
67358;HTU21D;54240;51.096;5.878;2023-06-01T00:48:36;15.58;-6.00
67358;HTU21D;54240;51.096;5.878;2023-06-01T00:51:02;15.44;-6.00
67358;HTU21D;54240;51.096;5.878;2023-06-01T00:53:28;15.54;-6.00
67358;HTU21D;54240;51.096;5.878;2023-06-01T00:55:54;15.44;-6.00
67358;HTU21D;54240;51.096;5.878;2023-06-01T00:58:21;15.41;-6.00
67358;HTU21D;54240;51.096;5.878;2023-06-01T01:00:47;15.28;-6.00
67358;HTU21D;54240;51.096;5.878;2023-06-01T01:03:14;15.42;-6.00
67358;HTU21D;54240;51.096;5.878;2023-06-01T01:05:41;15.41;-6.00
67358;HTU21D;54240;51.096;5.878;2023-06-01T01:08:34;15.36;-6.00
67358;HTU21D;54240;51.096;5.878;2023-06-01T01:11:07;15.27;-6.00
67358;HTU21D;54240;51.096;5.878;2023-06-01T01:16:38;15.09;-6.00
67358;HTU21D;54240;51.096;5.878;2023-06-01T01:27:55;14.67;-6.00
67358;HTU21D;54240;51.096;5.878;2023-06-01T01:30:26;14.56;-6.00
67358;HTU21D;54240;51.096;5.878;2023-06-01T01:32:55;14.43;-6.00
67358;HTU21D;54240;51.096;5.878;2023-06-01T01:35:26;14.37;-6.00
67358;HTU21D;54240;51.096;5.878;2023-06-01T01:37:54;14.43;-6.00
67358;HTU21D;54240;51.096;5.878;2023-06-01T01:40:24;14.42;-6.00
67358;HTU21D;54240;51.096;5.878;2023-06-01T01:42:51;14.43;-6.00
67358;HTU21D;54240;51.096;5.878;2023-06-01T01:45:19;14.47;-6.00
67358;HTU21D;54240;51.096;5.878;2023-06-01T01:50:44;14.29;-6.00
67358;HTU21D;54240;51.096;5.878;2023-06-01T01:53:15;14.23;-6.00
67358;HTU21D;54240;51.096;5.878;2023-06-01T01:55:43;14.22;-6.00
67358;HTU21D;54240;51.096;5.878;2023-06-01T01:58:12;14.13;-6.00
67358;HTU21D;54240;51.096;5.878;2023-06-01T02:00:40;14.03;-6.00
67358;HTU21D;54240;51.096;5.878;2023-06-01T02:03:17;14.03;-6.00
67358;HTU21D;54240;51.096;5.878;2023-06-01T02:05:44;13.98;-6.00
67358;HTU21D;54240;51.096;5.878;2023-06-01T02:08:10;13.86;-6.00
67358;HTU21D;54240;51.096;5.878;2023-06-01T02:10:37;13.84;-6.00
67358;HTU21D;54240;51.096;5.878;2023-06-01T02:13:03;13.49;-6.00
67358;HTU21D;54240;51.096;5.878;2023-06-01T02:15:30;13.49;-6.00
67358;HTU21D;54240;51.096;5.878;2023-06-01T02:17:55;42.37;-6.00
67358;HTU21D;54240;51.096;5.878;2023-06-01T02:20:22;13.47;-6.00
67358;HTU21D;54240;51.096;5.878;2023-06-01T02:22:48;13.52;-6.00
67358;HTU21D;54240;51.096;5.878;2023-06-01T02:25:14;13.63;-6.00
67358;HTU21D;54240;51.096;5.878;2023-06-01T02:27:41;13.50;-6.00
67358;HTU21D;54240;51.096;5.878;2023-06-01T02:30:07;13.32;-6.00
67358;HTU21D;54240;51.096;5.878;2023-06-01T02:32:34;13.43;-6.00
67358;HTU21D;54240;51.096;5.878;2023-06-01T02:35:00;13.40;-6.00
67358;HTU21D;54240;51.096;5.878;2023-06-01T02:37:27;13.46;-6.00
67358;HTU21D;54240;51.096;5.878;2023-06-01T02:39:52;13.46;-6.00
67358;HTU21D;54240;51.096;5.878;2023-06-01T02:42:20;13.45;-6.00
67358;HTU21D;54240;51.096;5.878;2023-06-01T02:44:47;13.41;-6.00
67358;HTU21D;54240;51.096;5.878;2023-06-01T02:47:13;13.24;-6.00
67358;HTU21D;54240;51.096;5.878;2023-06-01T02:49:39;13.21;-6.00
67358;HTU21D;54240;51.096;5.878;2023-06-01T02:52:05;13.23;-6.00
67358;HTU21D;54240;51.096;5.878;2023-06-01T02:54:31;13.14;-6.00
67358;HTU21D;54240;51.096;5.878;2023-06-01T02:57:03;13.16;-6.00
67358;HTU21D;54240;51.096;5.878;2023-06-01T02:59:34;13.15;-6.00
67358;HTU21D;54240;51.096;5.878;2023-06-01T03:02:02;13.08;-6.00
67358;HTU21D;54240;51.096;5.878;2023-06-01T03:04:29;13.00;-6.00
67358;HTU21D;54240;51.096;5.878;2023-06-01T03:06:59;12.89;-6.00
67358;HTU21D;54240;51.096;5.878;2023-06-01T03:09:35;12.78;-6.00
67358;HTU21D;54240;51.096;5.878;2023-06-01T03:12:24;12.74;-6.00
67358;HTU21D;54240;51.096;5.878;2023-06-01T03:14:50;12.74;-6.00
67358;HTU21D;54240;51.096;5.878;2023-06-01T03:17:16;12.71;-6.00
67358;HTU21D;54240;51.096;5.878;2023-06-01T03:19:42;12.70;-6.00
67358;HTU21D;54240;51.096;5.878;2023-06-01T03:22:16;12.67;-6.00
67358;HTU21D;54240;51.096;5.878;2023-06-01T03:24:42;12.58;-6.00
67358;HTU21D;54240;51.096;5.878;2023-06-01T03:27:10;12.58;-6.00
67358;HTU21D;54240;51.096;5.878;2023-06-01T03:29:39;12.55;-6.00
67358;HTU21D;54240;51.096;5.878;2023-06-01T03:32:05;12.53;-6.00
67358;HTU21D;54240;51.096;5.878;2023-06-01T03:34:32;12.51;-6.00
67358;HTU21D;54240;51.096;5.878;2023-06-01T03:36:58;12.48;-6.00
67358;HTU21D;54240;51.096;5.878;2023-06-01T03:39:24;12.50;-6.00
67358;HTU21D;54240;51.096;5.878;2023-06-01T03:41:51;12.32;-6.00
67358;HTU21D;54240;51.096;5.878;2023-06-01T03:44:16;12.37;-6.00
67358;HTU21D;54240;51.096;5.878;2023-06-01T03:46:43;12.43;-6.00
67358;HTU21D;54240;51.096;5.878;2023-06-01T03:49:09;12.21;-6.00
67358;HTU21D;54240;51.096;5.878;2023-06-01T03:51:36;12.40;-6.00
67358;HTU21D;54240;51.096;5.878;2023-06-01T03:54:02;12.15;-3.10
67358;HTU21D;54240;51.096;5.878;2023-06-01T03:56:28;12.37;-6.00
67358;HTU21D;54240;51.096;5.878;2023-06-01T03:58:58;12.37;-6.00
67358;HTU21D;54240;51.096;5.878;2023-06-01T04:01:24;12.11;-6.00
67358;HTU21D;54240;51.096;5.878;2023-06-01T04:03:55;12.14;-6.00
67358;HTU21D;54240;51.096;5.878;2023-06-01T04:06:23;12.07;-6.00
67358;HTU21D;54240;51.096;5.878;2023-06-01T04:08:50;12.26;-6.00
67358;HTU21D;54240;51.096;5.878;2023-06-01T04:11:21;12.04;-6.00
67358;HTU21D;54240;51.096;5.878;2023-06-01T04:13:52;12.12;-6.00
67358;HTU21D;54240;51.096;5.878;2023-06-01T04:16:19;11.74;40.49
67358;HTU21D;54240;51.096;5.878;2023-06-01T04:18:46;12.08;-6.00
67358;HTU21D;54240;51.096;5.878;2023-06-01T04:21:16;12.13;-6.00
67358;HTU21D;54240;51.096;5.878;2023-06-01T04:23:42;12.31;-6.00
67358;HTU21D;54240;51.096;5.878;2023-06-01T04:26:10;12.18;-6.00
67358;HTU21D;54240;51.096;5.878;2023-06-01T04:28:36;12.33;-6.00
67358;HTU21D;54240;51.096;5.878;2023-06-01T04:31:10;12.10;-6.00
67358;HTU21D;54240;51.096;5.878;2023-06-01T04:33:44;11.89;-6.00
67358;HTU21D;54240;51.096;5.878;2023-06-01T04:36:13;12.03;-6.00
67358;HTU21D;54240;51.096;5.878;2023-06-01T04:38:40;11.97;-6.00
67358;HTU21D;54240;51.096;5.878;2023-06-01T04:41:09;12.01;-6.00
67358;HTU21D;54240;51.096;5.878;2023-06-01T04:43:36;12.17;-6.00
67358;HTU21D;54240;51.096;5.878;2023-06-01T04:46:05;12.15;-6.00
67358;HTU21D;54240;51.096;5.878;2023-06-01T04:48:32;12.23;-6.00
67358;HTU21D;54240;51.096;5.878;2023-06-01T04:51:00;12.38;-6.00
67358;HTU21D;54240;51.096;5.878;2023-06-01T04:53:28;12.41;-6.00
67358;HTU21D;54240;51.096;5.878;2023-06-01T04:55:54;12.50;-6.00
67358;HTU21D;54240;51.096;5.878;2023-06-01T04:58:22;12.40;-6.00
67358;HTU21D;54240;51.096;5.878;2023-06-01T05:00:48;12.33;-6.00
67358;HTU21D;54240;51.096;5.878;2023-06-01T05:03:15;12.33;-6.00
67358;HTU21D;54240;51.096;5.878;2023-06-01T05:05:42;12.40;-6.00
67358;HTU21D;54240;51.096;5.878;2023-06-01T05:08:08;12.18;-6.00
67358;HTU21D;54240;51.096;5.878;2023-06-01T05:10:34;12.00;-6.00
67358;HTU21D;54240;51.096;5.878;2023-06-01T05:13:00;12.05;-6.00
67358;HTU21D;54240;51.096;5.878;2023-06-01T05:15:26;11.93;-6.00
67358;HTU21D;54240;51.096;5.878;2023-06-01T05:17:54;12.16;-6.00
67358;HTU21D;54240;51.096;5.878;2023-06-01T05:20:20;12.31;-6.00
67358;HTU21D;54240;51.096;5.878;2023-06-01T05:22:52;12.35;-6.00
67358;HTU21D;54240;51.096;5.878;2023-06-01T05:25:18;12.41;-6.00
67358;HTU21D;54240;51.096;5.878;2023-06-01T05:27:44;12.42;-6.00
67358;HTU21D;54240;51.096;5.878;2023-06-01T05:30:10;12.57;-6.00
67358;HTU21D;54240;51.096;5.878;2023-06-01T05:32:38;12.46;-6.00
67358;HTU21D;54240;51.096;5.878;2023-06-01T05:35:14;12.38;-6.00
67358;HTU21D;54240;51.096;5.878;2023-06-01T05:37:40;12.52;-6.00
67358;HTU21D;54240;51.096;5.878;2023-06-01T05:40:07;12.55;-6.00
67358;HTU21D;54240;51.096;5.878;2023-06-01T05:42:34;12.45;-6.00
67358;HTU21D;54240;51.096;5.878;2023-06-01T05:45:01;12.55;-6.00
67358;HTU21D;54240;51.096;5.878;2023-06-01T05:47:27;12.44;-6.00
67358;HTU21D;54240;51.096;5.878;2023-06-01T05:49:54;12.29;-6.00
67358;HTU21D;54240;51.096;5.878;2023-06-01T05:52:21;12.36;-6.00
67358;HTU21D;54240;51.096;5.878;2023-06-01T05:54:47;12.48;-6.00
67358;HTU21D;54240;51.096;5.878;2023-06-01T05:57:15;12.49;-6.00
67358;HTU21D;54240;51.096;5.878;2023-06-01T05:59:41;12.66;-6.00
67358;HTU21D;54240;51.096;5.878;2023-06-01T06:02:08;12.65;-6.00
67358;HTU21D;54240;51.096;5.878;2023-06-01T06:04:34;12.52;-6.00
67358;HTU21D;54240;51.096;5.878;2023-06-01T06:07:00;12.42;-6.00
67358;HTU21D;54240;51.096;5.878;2023-06-01T06:09:26;12.53;-6.00
67358;HTU21D;54240;51.096;5.878;2023-06-01T06:11:52;12.53;-6.00
67358;HTU21D;54240;51.096;5.878;2023-06-01T06:14:18;12.71;-6.00
67358;HTU21D;54240;51.096;5.878;2023-06-01T06:16:44;12.93;-6.00
67358;HTU21D;54240;51.096;5.878;2023-06-01T06:19:10;12.89;-6.00
67358;HTU21D;54240;51.096;5.878;2023-06-01T06:21:37;13.03;-6.00
67358;HTU21D;54240;51.096;5.878;2023-06-01T06:24:03;13.01;-6.00
67358;HTU21D;54240;51.096;5.878;2023-06-01T06:26:29;13.19;-6.00
67358;HTU21D;54240;51.096;5.878;2023-06-01T06:28:55;13.30;-6.00
67358;HTU21D;54240;51.096;5.878;2023-06-01T06:31:21;13.50;-6.00
67358;HTU21D;54240;51.096;5.878;2023-06-01T06:33:47;13.55;-6.00
67358;HTU21D;54240;51.096;5.878;2023-06-01T06:36:14;13.51;-6.00
67358;HTU21D;54240;51.096;5.878;2023-06-01T06:38:40;13.59;-6.00
67358;HTU21D;54240;51.096;5.878;2023-06-01T06:41:06;13.84;-6.00
67358;HTU21D;54240;51.096;5.878;2023-06-01T06:43:32;13.77;-6.00
67358;HTU21D;54240;51.096;5.878;2023-06-01T06:45:58;13.68;-6.00
67358;HTU21D;54240;51.096;5.878;2023-06-01T06:48:24;13.82;-6.00
67358;HTU21D;54240;51.096;5.878;2023-06-01T06:50:50;13.93;-6.00
67358;HTU21D;54240;51.096;5.878;2023-06-01T06:53:16;13.86;-6.00
67358;HTU21D;54240;51.096;5.878;2023-06-01T06:55:43;13.99;-6.00
67358;HTU21D;54240;51.096;5.878;2023-06-01T06:58:11;13.98;-6.00
67358;HTU21D;54240;51.096;5.878;2023-06-01T07:00:37;14.10;-6.00
67358;HTU21D;54240;51.096;5.878;2023-06-01T07:03:03;14.24;-6.00
67358;HTU21D;54240;51.096;5.878;2023-06-01T07:05:29;14.36;-6.00
67358;HTU21D;54240;51.096;5.878;2023-06-01T07:07:55;14.38;-6.00
67358;HTU21D;54240;51.096;5.878;2023-06-01T07:10:21;14.36;-6.00
67358;HTU21D;54240;51.096;5.878;2023-06-01T07:12:47;14.33;-6.00
67358;HTU21D;54240;51.096;5.878;2023-06-01T07:15:13;14.32;-6.00
67358;HTU21D;54240;51.096;5.878;2023-06-01T07:17:40;14.48;-6.00
67358;HTU21D;54240;51.096;5.878;2023-06-01T07:20:07;14.56;-6.00
67358;HTU21D;54240;51.096;5.878;2023-06-01T07:22:33;14.74;-6.00
67358;HTU21D;54240;51.096;5.878;2023-06-01T07:24:59;14.91;-6.00
67358;HTU21D;54240;51.096;5.878;2023-06-01T07:27:26;15.24;-6.00
67358;HTU21D;54240;51.096;5.878;2023-06-01T07:29:52;15.44;-6.00
67358;HTU21D;54240;51.096;5.878;2023-06-01T07:32:22;15.46;-6.00
67358;HTU21D;54240;51.096;5.878;2023-06-01T07:34:48;15.40;-6.00
67358;HTU21D;54240;51.096;5.878;2023-06-01T07:37:14;15.40;-6.00
67358;HTU21D;54240;51.096;5.878;2023-06-01T07:39:41;15.48;-6.00
67358;HTU21D;54240;51.096;5.878;2023-06-01T07:42:07;15.71;-6.00
67358;HTU21D;54240;51.096;5.878;2023-06-01T07:44:33;15.95;-6.00
67358;HTU21D;54240;51.096;5.878;2023-06-01T07:46:59;16.08;-6.00
67358;HTU21D;54240;51.096;5.878;2023-06-01T07:49:25;16.22;-6.00
67358;HTU21D;54240;51.096;5.878;2023-06-01T07:51:51;16.39;-6.00
67358;HTU21D;54240;51.096;5.878;2023-06-01T07:54:18;16.60;-6.00
67358;HTU21D;54240;51.096;5.878;2023-06-01T07:56:44;16.42;-6.00
67358;HTU21D;54240;51.096;5.878;2023-06-01T07:59:10;16.28;-6.00
67358;HTU21D;54240;51.096;5.878;2023-06-01T08:01:36;16.43;-6.00
67358;HTU21D;54240;51.096;5.878;2023-06-01T08:04:03;16.90;-6.00
67358;HTU21D;54240;51.096;5.878;2023-06-01T08:06:29;17.63;-6.00
67358;HTU21D;54240;51.096;5.878;2023-06-01T08:09:02;17.88;-6.00
67358;HTU21D;54240;51.096;5.878;2023-06-01T08:11:28;18.12;-6.00
67358;HTU21D;54240;51.096;5.878;2023-06-01T08:13:54;18.35;-6.00
67358;HTU21D;54240;51.096;5.878;2023-06-01T08:16:20;18.49;-6.00
67358;HTU21D;54240;51.096;5.878;2023-06-01T08:18:46;18.18;-6.00
67358;HTU21D;54240;51.096;5.878;2023-06-01T08:21:12;18.40;-6.00
67358;HTU21D;54240;51.096;5.878;2023-06-01T08:23:38;18.23;-6.00
67358;HTU21D;54240;51.096;5.878;2023-06-01T08:26:05;18.08;-6.00
67358;HTU21D;54240;51.096;5.878;2023-06-01T08:28:31;18.02;-6.00
67358;HTU21D;54240;51.096;5.878;2023-06-01T08:30:58;18.15;-6.00
67358;HTU21D;54240;51.096;5.878;2023-06-01T08:33:24;18.63;-6.00
67358;HTU21D;54240;51.096;5.878;2023-06-01T08:35:50;19.21;-6.00
67358;HTU21D;54240;51.096;5.878;2023-06-01T08:38:19;19.46;-6.00
67358;HTU21D;54240;51.096;5.878;2023-06-01T08:40:45;18.92;-6.00
67358;HTU21D;54240;51.096;5.878;2023-06-01T08:43:20;19.18;-6.00
67358;HTU21D;54240;51.096;5.878;2023-06-01T08:45:47;19.54;-6.00
67358;HTU21D;54240;51.096;5.878;2023-06-01T08:48:18;19.50;-6.00
67358;HTU21D;54240;51.096;5.878;2023-06-01T08:50:48;19.63;-6.00
67358;HTU21D;54240;51.096;5.878;2023-06-01T08:53:20;19.77;-6.00
67358;HTU21D;54240;51.096;5.878;2023-06-01T08:55:54;0.00;-6.00
67358;HTU21D;54240;51.096;5.878;2023-06-01T08:58:20;19.60;-6.00
67358;HTU21D;54240;51.096;5.878;2023-06-01T09:00:51;20.12;-6.00
67358;HTU21D;54240;51.096;5.878;2023-06-01T09:03:19;20.76;-6.00
67358;HTU21D;54240;51.096;5.878;2023-06-01T09:05:45;20.98;-6.00
67358;HTU21D;54240;51.096;5.878;2023-06-01T09:08:12;21.07;-6.00
67358;HTU21D;54240;51.096;5.878;2023-06-01T09:10:38;20.54;-6.00
67358;HTU21D;54240;51.096;5.878;2023-06-01T09:13:05;20.74;-6.00
67358;HTU21D;54240;51.096;5.878;2023-06-01T09:15:31;21.18;-6.00
67358;HTU21D;54240;51.096;5.878;2023-06-01T09:18:05;21.28;-6.00
67358;HTU21D;54240;51.096;5.878;2023-06-01T09:20:31;20.69;-6.00
67358;HTU21D;54240;51.096;5.878;2023-06-01T09:22:58;20.86;-6.00
67358;HTU21D;54240;51.096;5.878;2023-06-01T09:25:29;21.35;-6.00
67358;HTU21D;54240;51.096;5.878;2023-06-01T09:27:59;21.69;-6.00
67358;HTU21D;54240;51.096;5.878;2023-06-01T09:30:40;21.81;-6.00
67358;HTU21D;54240;51.096;5.878;2023-06-01T09:35:49;23.01;-6.00
67358;HTU21D;54240;51.096;5.878;2023-06-01T09:38:24;23.31;-6.00
67358;HTU21D;54240;51.096;5.878;2023-06-01T09:40:59;23.79;-6.00
67358;HTU21D;54240;51.096;5.878;2023-06-01T09:43:25;24.36;-6.00
67358;HTU21D;54240;51.096;5.878;2023-06-01T09:46:09;23.79;-6.00
67358;HTU21D;54240;51.096;5.878;2023-06-01T09:48:35;23.60;-6.00
67358;HTU21D;54240;51.096;5.878;2023-06-01T09:51:02;23.09;-6.00
67358;HTU21D;54240;51.096;5.878;2023-06-01T09:53:38;22.82;-6.00
67358;HTU21D;54240;51.096;5.878;2023-06-01T09:56:05;23.09;-6.00
67358;HTU21D;54240;51.096;5.878;2023-06-01T09:58:31;23.64;-6.00
67358;HTU21D;54240;51.096;5.878;2023-06-01T10:00:59;24.10;-6.00
67358;HTU21D;54240;51.096;5.878;2023-06-01T10:03:26;24.58;-6.00
67358;HTU21D;54240;51.096;5.878;2023-06-01T10:05:53;24.82;-6.00
67358;HTU21D;54240;51.096;5.878;2023-06-01T10:08:20;25.21;-6.00
67358;HTU21D;54240;51.096;5.878;2023-06-01T10:10:48;24.71;-6.00
67358;HTU21D;54240;51.096;5.878;2023-06-01T10:13:14;23.52;-6.00
67358;HTU21D;54240;51.096;5.878;2023-06-01T10:15:42;23.42;-6.00
67358;HTU21D;54240;51.096;5.878;2023-06-01T10:18:08;24.01;-6.00
67358;HTU21D;54240;51.096;5.878;2023-06-01T10:20:36;24.26;-6.00
67358;HTU21D;54240;51.096;5.878;2023-06-01T10:23:04;24.39;-6.00
67358;HTU21D;54240;51.096;5.878;2023-06-01T10:25:41;24.85;-6.00
67358;HTU21D;54240;51.096;5.878;2023-06-01T10:28:11;25.42;-6.00
67358;HTU21D;54240;51.096;5.878;2023-06-01T10:30:37;25.01;-6.00
67358;HTU21D;54240;51.096;5.878;2023-06-01T10:33:04;25.22;-6.00
67358;HTU21D;54240;51.096;5.878;2023-06-01T10:40:36;25.16;-6.00
67358;HTU21D;54240;51.096;5.878;2023-06-01T10:43:02;24.85;-6.00
67358;HTU21D;54240;51.096;5.878;2023-06-01T10:48:02;24.51;-6.00
67358;HTU21D;54240;51.096;5.878;2023-06-01T10:50:29;24.30;-6.00
67358;HTU21D;54240;51.096;5.878;2023-06-01T10:52:56;24.95;-6.00
67358;HTU21D;54240;51.096;5.878;2023-06-01T10:55:26;25.60;-6.00
67358;HTU21D;54240;51.096;5.878;2023-06-01T10:58:19;25.40;-6.00
67358;HTU21D;54240;51.096;5.878;2023-06-01T11:00:46;25.34;-6.00
67358;HTU21D;54240;51.096;5.878;2023-06-01T11:03:13;25.92;-6.00
67358;HTU21D;54240;51.096;5.878;2023-06-01T11:05:43;26.18;-6.00
67358;HTU21D;54240;51.096;5.878;2023-06-01T11:13:20;26.82;-6.00
67358;HTU21D;54240;51.096;5.878;2023-06-01T11:18:53;25.90;-6.00
67358;HTU21D;54240;51.096;5.878;2023-06-01T11:24:00;26.78;-6.00
67358;HTU21D;54240;51.096;5.878;2023-06-01T11:26:32;27.19;-6.00
67358;HTU21D;54240;51.096;5.878;2023-06-01T11:29:24;27.30;-6.00
67358;HTU21D;54240;51.096;5.878;2023-06-01T11:31:56;27.10;-6.00
67358;HTU21D;54240;51.096;5.878;2023-06-01T11:34:41;26.09;-6.00
67358;HTU21D;54240;51.096;5.878;2023-06-01T11:37:17;25.87;-6.00
67358;HTU21D;54240;51.096;5.878;2023-06-01T11:39:45;24.84;-6.00
67358;HTU21D;54240;51.096;5.878;2023-06-01T11:42:17;24.65;-6.00
67358;HTU21D;54240;51.096;5.878;2023-06-01T11:44:45;24.03;-6.00
67358;HTU21D;54240;51.096;5.878;2023-06-01T11:47:13;23.55;-6.00
67358;HTU21D;54240;51.096;5.878;2023-06-01T11:49:45;23.49;-6.00
67358;HTU21D;54240;51.096;5.878;2023-06-01T11:52:14;23.18;-6.00
67358;HTU21D;54240;51.096;5.878;2023-06-01T11:54:40;23.57;-6.00
67358;HTU21D;54240;51.096;5.878;2023-06-01T11:57:07;24.03;-6.00
67358;HTU21D;54240;51.096;5.878;2023-06-01T11:59:41;23.79;-6.00
67358;HTU21D;54240;51.096;5.878;2023-06-01T12:02:22;24.12;-6.00
67358;HTU21D;54240;51.096;5.878;2023-06-01T12:05:08;23.68;-6.00
67358;HTU21D;54240;51.096;5.878;2023-06-01T12:07:48;23.79;-6.00
67358;HTU21D;54240;51.096;5.878;2023-06-01T12:10:18;23.64;-6.00
67358;HTU21D;54240;51.096;5.878;2023-06-01T12:12:46;23.83;-6.00
67358;HTU21D;54240;51.096;5.878;2023-06-01T12:15:16;23.90;-6.00
67358;HTU21D;54240;51.096;5.878;2023-06-01T12:17:51;23.68;-6.00
67358;HTU21D;54240;51.096;5.878;2023-06-01T12:22:57;23.57;-6.00
67358;HTU21D;54240;51.096;5.878;2023-06-01T12:25:24;23.29;-6.00
67358;HTU21D;54240;51.096;5.878;2023-06-01T12:30:27;24.14;-6.00
67358;HTU21D;54240;51.096;5.878;2023-06-01T12:32:53;24.19;-6.00
67358;HTU21D;54240;51.096;5.878;2023-06-01T12:35:19;24.02;-6.00
67358;HTU21D;54240;51.096;5.878;2023-06-01T12:38:06;24.39;-6.00
67358;HTU21D;54240;51.096;5.878;2023-06-01T12:40:33;23.83;-6.00
67358;HTU21D;54240;51.096;5.878;2023-06-01T12:43:00;24.40;-6.00
67358;HTU21D;54240;51.096;5.878;2023-06-01T12:45:43;24.70;-6.00
67358;HTU21D;54240;51.096;5.878;2023-06-01T12:48:29;24.84;-6.00
67358;HTU21D;54240;51.096;5.878;2023-06-01T12:50:55;24.57;-6.00
67358;HTU21D;54240;51.096;5.878;2023-06-01T12:53:21;24.55;-6.00
67358;HTU21D;54240;51.096;5.878;2023-06-01T12:55:47;24.34;-6.00
67358;HTU21D;54240;51.096;5.878;2023-06-01T12:58:13;24.42;-6.00
67358;HTU21D;54240;51.096;5.878;2023-06-01T13:00:39;24.53;-6.00
67358;HTU21D;54240;51.096;5.878;2023-06-01T13:03:05;24.54;-6.00
67358;HTU21D;54240;51.096;5.878;2023-06-01T13:05:32;24.50;-6.00
67358;HTU21D;54240;51.096;5.878;2023-06-01T13:07:58;24.56;-6.00
67358;HTU21D;54240;51.096;5.878;2023-06-01T13:10:26;24.41;-6.00
67358;HTU21D;54240;51.096;5.878;2023-06-01T13:12:52;24.12;-6.00
67358;HTU21D;54240;51.096;5.878;2023-06-01T13:15:18;24.01;-6.00
67358;HTU21D;54240;51.096;5.878;2023-06-01T13:17:44;23.68;-6.00
67358;HTU21D;54240;51.096;5.878;2023-06-01T13:20:10;23.77;-6.00
67358;HTU21D;54240;51.096;5.878;2023-06-01T13:22:38;24.04;-6.00
67358;HTU21D;54240;51.096;5.878;2023-06-01T13:25:04;23.76;-6.00
67358;HTU21D;54240;51.096;5.878;2023-06-01T13:27:31;23.53;-6.00
67358;HTU21D;54240;51.096;5.878;2023-06-01T13:29:57;23.84;-6.00
67358;HTU21D;54240;51.096;5.878;2023-06-01T13:32:23;23.90;-6.00
67358;HTU21D;54240;51.096;5.878;2023-06-01T13:34:49;24.25;-6.00
67358;HTU21D;54240;51.096;5.878;2023-06-01T13:37:15;24.10;-6.00
67358;HTU21D;54240;51.096;5.878;2023-06-01T13:39:41;24.27;-6.00
67358;HTU21D;54240;51.096;5.878;2023-06-01T13:42:07;24.18;-6.00
67358;HTU21D;54240;51.096;5.878;2023-06-01T13:44:33;24.09;-6.00
67358;HTU21D;54240;51.096;5.878;2023-06-01T13:47:00;24.11;-6.00
67358;HTU21D;54240;51.096;5.878;2023-06-01T13:49:25;24.33;-6.00
67358;HTU21D;54240;51.096;5.878;2023-06-01T13:51:52;24.05;-6.00
67358;HTU21D;54240;51.096;5.878;2023-06-01T13:54:19;24.23;-6.00
67358;HTU21D;54240;51.096;5.878;2023-06-01T13:56:45;24.44;-6.00
67358;HTU21D;54240;51.096;5.878;2023-06-01T13:59:11;24.76;-6.00
67358;HTU21D;54240;51.096;5.878;2023-06-01T14:01:37;24.65;-6.00
67358;HTU21D;54240;51.096;5.878;2023-06-01T14:04:03;24.55;-6.00
67358;HTU21D;54240;51.096;5.878;2023-06-01T14:06:29;24.71;-6.00
67358;HTU21D;54240;51.096;5.878;2023-06-01T14:08:55;24.20;-6.00
67358;HTU21D;54240;51.096;5.878;2023-06-01T14:11:20;24.36;-6.00
67358;HTU21D;54240;51.096;5.878;2023-06-01T14:13:47;24.13;-6.00
67358;HTU21D;54240;51.096;5.878;2023-06-01T14:16:13;24.25;-6.00
67358;HTU21D;54240;51.096;5.878;2023-06-01T14:18:39;24.28;-6.00
67358;HTU21D;54240;51.096;5.878;2023-06-01T14:21:05;24.49;-6.00
67358;HTU21D;54240;51.096;5.878;2023-06-01T14:23:31;24.71;-6.00
67358;HTU21D;54240;51.096;5.878;2023-06-01T14:25:58;24.76;-6.00
67358;HTU21D;54240;51.096;5.878;2023-06-01T14:28:24;24.99;-6.00
67358;HTU21D;54240;51.096;5.878;2023-06-01T14:30:50;25.05;-6.00
67358;HTU21D;54240;51.096;5.878;2023-06-01T14:33:16;25.07;-6.00
67358;HTU21D;54240;51.096;5.878;2023-06-01T14:35:42;24.89;-6.00
67358;HTU21D;54240;51.096;5.878;2023-06-01T14:38:08;24.75;-6.00
67358;HTU21D;54240;51.096;5.878;2023-06-01T14:40:34;24.90;-6.00
67358;HTU21D;54240;51.096;5.878;2023-06-01T14:43:00;25.04;-6.00
67358;HTU21D;54240;51.096;5.878;2023-06-01T14:45:26;25.35;-6.00
67358;HTU21D;54240;51.096;5.878;2023-06-01T14:47:52;25.36;-6.00
67358;HTU21D;54240;51.096;5.878;2023-06-01T14:50:18;24.89;-6.00
67358;HTU21D;54240;51.096;5.878;2023-06-01T14:52:45;24.83;-6.00
67358;HTU21D;54240;51.096;5.878;2023-06-01T14:55:11;24.78;-6.00
67358;HTU21D;54240;51.096;5.878;2023-06-01T14:57:37;24.89;-6.00
67358;HTU21D;54240;51.096;5.878;2023-06-01T15:00:03;24.93;-6.00
67358;HTU21D;54240;51.096;5.878;2023-06-01T15:02:31;25.00;-6.00
67358;HTU21D;54240;51.096;5.878;2023-06-01T15:04:57;25.12;-6.00
67358;HTU21D;54240;51.096;5.878;2023-06-01T15:07:23;24.78;-6.00
67358;HTU21D;54240;51.096;5.878;2023-06-01T15:09:49;24.64;-6.00
67358;HTU21D;54240;51.096;5.878;2023-06-01T15:12:15;24.34;-6.00
67358;HTU21D;54240;51.096;5.878;2023-06-01T15:14:41;24.58;-6.00
67358;HTU21D;54240;51.096;5.878;2023-06-01T15:17:07;24.98;-6.00
67358;HTU21D;54240;51.096;5.878;2023-06-01T15:19:33;24.90;-6.00
67358;HTU21D;54240;51.096;5.878;2023-06-01T15:21:59;24.65;-6.00
67358;HTU21D;54240;51.096;5.878;2023-06-01T15:24:25;24.79;-6.00
67358;HTU21D;54240;51.096;5.878;2023-06-01T15:26:51;24.99;-6.00
67358;HTU21D;54240;51.096;5.878;2023-06-01T15:29:17;25.00;-6.00
67358;HTU21D;54240;51.096;5.878;2023-06-01T15:31:44;24.76;-6.00
67358;HTU21D;54240;51.096;5.878;2023-06-01T15:34:10;24.69;-6.00
67358;HTU21D;54240;51.096;5.878;2023-06-01T15:36:36;24.60;-6.00
67358;HTU21D;54240;51.096;5.878;2023-06-01T15:39:02;24.76;-6.00
67358;HTU21D;54240;51.096;5.878;2023-06-01T15:41:30;24.83;-6.00
67358;HTU21D;54240;51.096;5.878;2023-06-01T15:43:56;24.97;-6.00
67358;HTU21D;54240;51.096;5.878;2023-06-01T15:46:22;24.70;-6.00
67358;HTU21D;54240;51.096;5.878;2023-06-01T15:48:48;24.80;-6.00
67358;HTU21D;54240;51.096;5.878;2023-06-01T15:51:14;24.61;-6.00
67358;HTU21D;54240;51.096;5.878;2023-06-01T15:53:41;24.94;-6.00
67358;HTU21D;54240;51.096;5.878;2023-06-01T15:56:07;24.79;-6.00
67358;HTU21D;54240;51.096;5.878;2023-06-01T15:58:33;24.79;-6.00
67358;HTU21D;54240;51.096;5.878;2023-06-01T16:01:02;24.55;-6.00